sensor_id;sensor_type;location;lat;lon;timestamp;P1;durP1;ratioP1;P2;durP2;ratioP2
74293;SDS011;64044;59.904;10.738;2023-09-08T00:00:56;7.60;;;5.30;;
74293;SDS011;64044;59.904;10.738;2023-09-08T00:03:22;7.63;;;6.47;;
74293;SDS011;64044;59.904;10.738;2023-09-08T00:05:48;6.78;;;6.07;;
74293;SDS011;64044;59.904;10.738;2023-09-08T00:08:14;8.32;;;5.80;;
74293;SDS011;64044;59.904;10.738;2023-09-08T00:10:40;7.57;;;5.65;;
74293;SDS011;64044;59.904;10.738;2023-09-08T00:13:05;9.55;;;6.38;;
74293;SDS011;64044;59.904;10.738;2023-09-08T00:15:33;9.63;;;5.85;;
74293;SDS011;64044;59.904;10.738;2023-09-08T00:18:00;9.05;;;6.30;;
74293;SDS011;64044;59.904;10.738;2023-09-08T00:20:26;8.55;;;6.15;;
74293;SDS011;64044;59.904;10.738;2023-09-08T00:22:51;7.25;;;5.70;;
74293;SDS011;64044;59.904;10.738;2023-09-08T00:25:17;7.68;;;6.32;;
74293;SDS011;64044;59.904;10.738;2023-09-08T00:27:43;9.18;;;6.25;;
74293;SDS011;64044;59.904;10.738;2023-09-08T00:30:09;8.25;;;6.07;;
74293;SDS011;64044;59.904;10.738;2023-09-08T00:32:35;9.48;;;6.35;;
74293;SDS011;64044;59.904;10.738;2023-09-08T00:35:01;9.15;;;6.25;;
74293;SDS011;64044;59.904;10.738;2023-09-08T00:37:27;8.52;;;6.03;;
74293;SDS011;64044;59.904;10.738;2023-09-08T00:39:52;7.93;;;6.72;;
74293;SDS011;64044;59.904;10.738;2023-09-08T00:42:18;9.60;;;6.78;;
74293;SDS011;64044;59.904;10.738;2023-09-08T00:44:44;9.45;;;6.45;;
74293;SDS011;64044;59.904;10.738;2023-09-08T00:47:09;6.97;;;6.25;;
74293;SDS011;64044;59.904;10.738;2023-09-08T00:49:35;7.30;;;6.13;;
74293;SDS011;64044;59.904;10.738;2023-09-08T00:52:01;7.40;;;6.32;;
74293;SDS011;64044;59.904;10.738;2023-09-08T00:54:28;7.93;;;5.85;;
74293;SDS011;64044;59.904;10.738;2023-09-08T00:56:55;8.65;;;6.78;;
74293;SDS011;64044;59.904;10.738;2023-09-08T00:59:25;6.93;;;6.22;;
74293;SDS011;64044;59.904;10.738;2023-09-08T01:01:51;12.80;;;7.53;;
74293;SDS011;64044;59.904;10.738;2023-09-08T01:04:17;10.07;;;6.78;;
74293;SDS011;64044;59.904;10.738;2023-09-08T01:06:44;8.63;;;6.10;;
74293;SDS011;64044;59.904;10.738;2023-09-08T01:09:10;8.02;;;6.55;;
74293;SDS011;64044;59.904;10.738;2023-09-08T01:11:38;12.63;;;7.45;;
74293;SDS011;64044;59.904;10.738;2023-09-08T01:14:04;9.52;;;6.75;;
74293;SDS011;64044;59.904;10.738;2023-09-08T01:16:30;10.38;;;6.97;;
74293;SDS011;64044;59.904;10.738;2023-09-08T01:18:56;9.38;;;7.25;;
74293;SDS011;64044;59.904;10.738;2023-09-08T01:26:35;9.30;;;7.22;;
74293;SDS011;64044;59.904;10.738;2023-09-08T01:29:05;10.38;;;7.70;;
74293;SDS011;64044;59.904;10.738;2023-09-08T01:31:33;8.45;;;6.78;;
74293;SDS011;64044;59.904;10.738;2023-09-08T01:34:00;10.73;;;7.30;;
74293;SDS011;64044;59.904;10.738;2023-09-08T01:36:29;9.50;;;7.32;;
74293;SDS011;64044;59.904;10.738;2023-09-08T01:38:55;8.45;;;7.13;;
74293;SDS011;64044;59.904;10.738;2023-09-08T01:41:21;9.20;;;7.88;;
74293;SDS011;64044;59.904;10.738;2023-09-08T01:43:46;11.10;;;8.15;;
74293;SDS011;64044;59.904;10.738;2023-09-08T01:46:12;11.43;;;8.10;;
74293;SDS011;64044;59.904;10.738;2023-09-08T01:48:38;10.98;;;7.32;;
74293;SDS011;64044;59.904;10.738;2023-09-08T01:51:04;9.23;;;7.25;;
74293;SDS011;64044;59.904;10.738;2023-09-08T01:53:29;13.18;;;7.65;;
74293;SDS011;64044;59.904;10.738;2023-09-08T01:55:55;11.13;;;7.88;;
74293;SDS011;64044;59.904;10.738;2023-09-08T01:58:20;9.73;;;7.25;;
74293;SDS011;64044;59.904;10.738;2023-09-08T02:00:50;10.98;;;8.15;;
74293;SDS011;64044;59.904;10.738;2023-09-08T02:03:18;13.30;;;7.70;;
74293;SDS011;64044;59.904;10.738;2023-09-08T02:05:44;10.57;;;6.90;;
74293;SDS011;64044;59.904;10.738;2023-09-08T02:08:10;9.80;;;7.43;;
74293;SDS011;64044;59.904;10.738;2023-09-08T02:10:39;9.30;;;7.03;;
74293;SDS011;64044;59.904;10.738;2023-09-08T02:13:05;9.43;;;7.55;;
74293;SDS011;64044;59.904;10.738;2023-09-08T02:15:31;11.85;;;7.85;;
74293;SDS011;64044;59.904;10.738;2023-09-08T02:18:00;10.02;;;7.53;;
74293;SDS011;64044;59.904;10.738;2023-09-08T02:20:26;9.02;;;7.10;;
74293;SDS011;64044;59.904;10.738;2023-09-08T02:22:52;11.00;;;8.05;;
74293;SDS011;64044;59.904;10.738;2023-09-08T02:25:19;14.30;;;8.80;;
74293;SDS011;64044;59.904;10.738;2023-09-08T02:27:45;11.32;;;7.65;;
74293;SDS011;64044;59.904;10.738;2023-09-08T02:30:11;11.75;;;8.60;;
74293;SDS011;64044;59.904;10.738;2023-09-08T02:32:36;9.77;;;8.07;;
74293;SDS011;64044;59.904;10.738;2023-09-08T02:35:02;10.82;;;8.10;;
74293;SDS011;64044;59.904;10.738;2023-09-08T02:37:28;10.45;;;7.40;;
74293;SDS011;64044;59.904;10.738;2023-09-08T02:39:54;11.15;;;8.25;;
74293;SDS011;64044;59.904;10.738;2023-09-08T02:42:19;12.68;;;8.82;;
74293;SDS011;64044;59.904;10.738;2023-09-08T02:44:45;12.27;;;8.50;;
74293;SDS011;64044;59.904;10.738;2023-09-08T02:47:11;10.27;;;8.68;;
74293;SDS011;64044;59.904;10.738;2023-09-08T02:49:37;11.95;;;8.52;;
74293;SDS011;64044;59.904;10.738;2023-09-08T02:52:02;11.38;;;8.48;;
74293;SDS011;64044;59.904;10.738;2023-09-08T02:54:29;14.45;;;8.82;;
74293;SDS011;64044;59.904;10.738;2023-09-08T02:56:54;12.45;;;9.02;;
74293;SDS011;64044;59.904;10.738;2023-09-08T02:59:20;12.50;;;9.13;;
74293;SDS011;64044;59.904;10.738;2023-09-08T03:01:46;12.57;;;8.68;;
74293;SDS011;64044;59.904;10.738;2023-09-08T03:04:11;12.00;;;8.40;;
74293;SDS011;64044;59.904;10.738;2023-09-08T03:06:37;9.85;;;7.97;;
74293;SDS011;64044;59.904;10.738;2023-09-08T03:09:03;11.38;;;8.32;;
74293;SDS011;64044;59.904;10.738;2023-09-08T03:11:29;16.92;;;9.18;;
74293;SDS011;64044;59.904;10.738;2023-09-08T03:13:54;11.88;;;8.43;;
74293;SDS011;64044;59.904;10.738;2023-09-08T03:16:20;13.10;;;8.60;;
74293;SDS011;64044;59.904;10.738;2023-09-08T03:18:46;12.43;;;8.48;;
74293;SDS011;64044;59.904;10.738;2023-09-08T03:21:13;10.43;;;8.35;;
74293;SDS011;64044;59.904;10.738;2023-09-08T03:23:39;11.45;;;7.97;;
74293;SDS011;64044;59.904;10.738;2023-09-08T03:26:06;11.07;;;8.48;;
74293;SDS011;64044;59.904;10.738;2023-09-08T03:28:33;13.15;;;8.60;;
74293;SDS011;64044;59.904;10.738;2023-09-08T03:31:02;12.75;;;8.13;;
74293;SDS011;64044;59.904;10.738;2023-09-08T03:33:28;12.57;;;8.18;;
74293;SDS011;64044;59.904;10.738;2023-09-08T03:35:54;13.05;;;8.90;;
74293;SDS011;64044;59.904;10.738;2023-09-08T03:38:20;10.50;;;8.60;;
74293;SDS011;64044;59.904;10.738;2023-09-08T03:40:46;10.45;;;8.27;;
74293;SDS011;64044;59.904;10.738;2023-09-08T03:43:12;11.20;;;8.20;;
74293;SDS011;64044;59.904;10.738;2023-09-08T03:45:38;14.25;;;8.35;;
74293;SDS011;64044;59.904;10.738;2023-09-08T03:48:04;13.15;;;8.57;;
74293;SDS011;64044;59.904;10.738;2023-09-08T03:50:30;9.70;;;7.30;;
74293;SDS011;64044;59.904;10.738;2023-09-08T03:52:56;8.35;;;7.50;;
74293;SDS011;64044;59.904;10.738;2023-09-08T03:55:22;7.55;;;6.75;;
74293;SDS011;64044;59.904;10.738;2023-09-08T03:57:48;9.88;;;7.13;;
74293;SDS011;64044;59.904;10.738;2023-09-08T04:00:13;10.52;;;7.75;;
74293;SDS011;64044;59.904;10.738;2023-09-08T04:02:49;8.63;;;7.30;;
74293;SDS011;64044;59.904;10.738;2023-09-08T04:05:17;10.93;;;8.52;;
74293;SDS011;64044;59.904;10.738;2023-09-08T04:07:44;12.30;;;8.77;;
74293;SDS011;64044;59.904;10.738;2023-09-08T04:10:10;9.95;;;7.93;;
74293;SDS011;64044;59.904;10.738;2023-09-08T04:12:37;11.60;;;7.72;;
74293;SDS011;64044;59.904;10.738;2023-09-08T04:15:03;10.38;;;7.20;;
74293;SDS011;64044;59.904;10.738;2023-09-08T04:17:29;9.30;;;7.25;;
74293;SDS011;64044;59.904;10.738;2023-09-08T04:19:55;9.50;;;7.15;;
74293;SDS011;64044;59.904;10.738;2023-09-08T04:22:21;11.20;;;7.82;;
74293;SDS011;64044;59.904;10.738;2023-09-08T04:24:47;9.30;;;7.68;;
74293;SDS011;64044;59.904;10.738;2023-09-08T04:27:12;11.30;;;7.35;;
74293;SDS011;64044;59.904;10.738;2023-09-08T04:29:38;13.18;;;7.68;;
74293;SDS011;64044;59.904;10.738;2023-09-08T04:32:04;11.98;;;7.97;;
74293;SDS011;64044;59.904;10.738;2023-09-08T04:34:37;11.32;;;7.65;;
74293;SDS011;64044;59.904;10.738;2023-09-08T04:37:04;11.48;;;7.70;;
74293;SDS011;64044;59.904;10.738;2023-09-08T04:39:29;10.02;;;7.60;;
74293;SDS011;64044;59.904;10.738;2023-09-08T04:41:55;9.85;;;7.47;;
74293;SDS011;64044;59.904;10.738;2023-09-08T04:44:21;10.93;;;8.10;;
74293;SDS011;64044;59.904;10.738;2023-09-08T04:46:47;9.43;;;7.63;;
74293;SDS011;64044;59.904;10.738;2023-09-08T04:49:13;10.85;;;8.13;;
74293;SDS011;64044;59.904;10.738;2023-09-08T04:51:39;9.07;;;7.55;;
74293;SDS011;64044;59.904;10.738;2023-09-08T04:54:04;13.55;;;8.88;;
74293;SDS011;64044;59.904;10.738;2023-09-08T04:56:30;11.02;;;7.93;;
74293;SDS011;64044;59.904;10.738;2023-09-08T04:58:56;10.82;;;7.72;;
74293;SDS011;64044;59.904;10.738;2023-09-08T05:01:23;11.10;;;7.90;;
74293;SDS011;64044;59.904;10.738;2023-09-08T05:03:49;8.95;;;7.03;;
74293;SDS011;64044;59.904;10.738;2023-09-08T05:06:14;9.15;;;6.78;;
74293;SDS011;64044;59.904;10.738;2023-09-08T05:08:40;9.38;;;7.60;;
74293;SDS011;64044;59.904;10.738;2023-09-08T05:11:06;9.38;;;6.88;;
74293;SDS011;64044;59.904;10.738;2023-09-08T05:13:31;9.18;;;6.93;;
74293;SDS011;64044;59.904;10.738;2023-09-08T05:15:57;8.57;;;6.72;;
74293;SDS011;64044;59.904;10.738;2023-09-08T05:18:28;11.65;;;7.47;;
74293;SDS011;64044;59.904;10.738;2023-09-08T05:20:54;11.40;;;7.72;;
74293;SDS011;64044;59.904;10.738;2023-09-08T05:23:19;11.52;;;7.30;;
74293;SDS011;64044;59.904;10.738;2023-09-08T05:25:45;10.02;;;7.00;;
74293;SDS011;64044;59.904;10.738;2023-09-08T05:28:11;8.52;;;6.93;;
74293;SDS011;64044;59.904;10.738;2023-09-08T05:30:36;8.15;;;6.60;;
74293;SDS011;64044;59.904;10.738;2023-09-08T05:33:02;7.68;;;6.40;;
74293;SDS011;64044;59.904;10.738;2023-09-08T05:35:28;9.43;;;6.68;;
74293;SDS011;64044;59.904;10.738;2023-09-08T05:37:53;10.05;;;7.07;;
74293;SDS011;64044;59.904;10.738;2023-09-08T05:40:19;8.77;;;6.82;;
74293;SDS011;64044;59.904;10.738;2023-09-08T05:42:48;9.90;;;6.00;;
74293;SDS011;64044;59.904;10.738;2023-09-08T05:45:14;10.80;;;7.22;;
74293;SDS011;64044;59.904;10.738;2023-09-08T05:47:40;7.80;;;6.07;;
74293;SDS011;64044;59.904;10.738;2023-09-08T05:50:06;8.93;;;5.78;;
74293;SDS011;64044;59.904;10.738;2023-09-08T05:52:32;8.05;;;6.43;;
74293;SDS011;64044;59.904;10.738;2023-09-08T05:54:58;9.00;;;6.70;;
74293;SDS011;64044;59.904;10.738;2023-09-08T05:57:24;8.65;;;6.20;;
74293;SDS011;64044;59.904;10.738;2023-09-08T05:59:49;8.18;;;6.18;;
74293;SDS011;64044;59.904;10.738;2023-09-08T06:02:15;8.13;;;6.15;;
74293;SDS011;64044;59.904;10.738;2023-09-08T06:04:41;8.35;;;6.32;;
74293;SDS011;64044;59.904;10.738;2023-09-08T06:07:06;8.60;;;6.13;;
74293;SDS011;64044;59.904;10.738;2023-09-08T06:09:32;7.78;;;5.75;;
74293;SDS011;64044;59.904;10.738;2023-09-08T06:11:58;8.30;;;6.30;;
74293;SDS011;64044;59.904;10.738;2023-09-08T06:14:23;7.47;;;5.50;;
74293;SDS011;64044;59.904;10.738;2023-09-08T06:19:40;7.55;;;5.60;;
74293;SDS011;64044;59.904;10.738;2023-09-08T06:22:06;8.30;;;5.60;;
74293;SDS011;64044;59.904;10.738;2023-09-08T06:24:31;8.88;;;6.13;;
74293;SDS011;64044;59.904;10.738;2023-09-08T06:26:57;8.23;;;5.82;;
74293;SDS011;64044;59.904;10.738;2023-09-08T06:29:23;6.57;;;5.35;;
74293;SDS011;64044;59.904;10.738;2023-09-08T06:31:48;7.53;;;5.47;;
74293;SDS011;64044;59.904;10.738;2023-09-08T06:34:14;7.72;;;5.05;;
74293;SDS011;64044;59.904;10.738;2023-09-08T06:36:40;6.65;;;5.07;;
74293;SDS011;64044;59.904;10.738;2023-09-08T06:39:05;8.48;;;4.82;;
74293;SDS011;64044;59.904;10.738;2023-09-08T06:41:31;5.82;;;5.00;;
74293;SDS011;64044;59.904;10.738;2023-09-08T06:43:56;7.03;;;4.88;;
74293;SDS011;64044;59.904;10.738;2023-09-08T06:46:22;6.75;;;5.70;;
74293;SDS011;64044;59.904;10.738;2023-09-08T06:48:48;7.35;;;5.47;;
74293;SDS011;64044;59.904;10.738;2023-09-08T06:51:13;6.55;;;5.13;;
74293;SDS011;64044;59.904;10.738;2023-09-08T06:53:40;8.02;;;5.38;;
74293;SDS011;64044;59.904;10.738;2023-09-08T06:56:07;7.38;;;5.50;;
74293;SDS011;64044;59.904;10.738;2023-09-08T06:58:33;7.53;;;5.68;;
74293;SDS011;64044;59.904;10.738;2023-09-08T07:00:59;7.97;;;6.32;;
74293;SDS011;64044;59.904;10.738;2023-09-08T07:03:24;6.72;;;5.25;;
74293;SDS011;64044;59.904;10.738;2023-09-08T07:05:51;6.55;;;5.03;;
74293;SDS011;64044;59.904;10.738;2023-09-08T07:08:17;7.18;;;5.70;;
74293;SDS011;64044;59.904;10.738;2023-09-08T07:10:43;6.88;;;5.32;;
74293;SDS011;64044;59.904;10.738;2023-09-08T07:13:09;6.57;;;5.07;;
74293;SDS011;64044;59.904;10.738;2023-09-08T07:15:35;7.07;;;5.30;;
74293;SDS011;64044;59.904;10.738;2023-09-08T07:18:01;5.80;;;5.20;;
74293;SDS011;64044;59.904;10.738;2023-09-08T07:20:27;6.30;;;5.22;;
74293;SDS011;64044;59.904;10.738;2023-09-08T07:22:53;6.78;;;5.35;;
74293;SDS011;64044;59.904;10.738;2023-09-08T07:25:19;6.90;;;5.15;;
74293;SDS011;64044;59.904;10.738;2023-09-08T07:27:45;5.88;;;5.28;;
74293;SDS011;64044;59.904;10.738;2023-09-08T07:30:11;7.53;;;5.13;;
74293;SDS011;64044;59.904;10.738;2023-09-08T07:32:37;6.63;;;5.03;;
74293;SDS011;64044;59.904;10.738;2023-09-08T07:35:03;5.93;;;4.75;;
74293;SDS011;64044;59.904;10.738;2023-09-08T07:37:29;5.82;;;4.28;;
74293;SDS011;64044;59.904;10.738;2023-09-08T07:39:54;7.70;;;5.35;;
74293;SDS011;64044;59.904;10.738;2023-09-08T07:42:20;7.32;;;5.05;;
74293;SDS011;64044;59.904;10.738;2023-09-08T07:44:46;5.88;;;4.90;;
74293;SDS011;64044;59.904;10.738;2023-09-08T07:47:12;7.35;;;5.90;;
74293;SDS011;64044;59.904;10.738;2023-09-08T07:49:38;8.63;;;5.60;;
74293;SDS011;64044;59.904;10.738;2023-09-08T07:52:04;7.18;;;5.72;;
74293;SDS011;64044;59.904;10.738;2023-09-08T07:54:32;5.90;;;4.30;;
74293;SDS011;64044;59.904;10.738;2023-09-08T07:56:58;6.05;;;5.13;;
74293;SDS011;64044;59.904;10.738;2023-09-08T07:59:23;6.30;;;4.53;;
74293;SDS011;64044;59.904;10.738;2023-09-08T08:01:49;5.07;;;4.35;;
74293;SDS011;64044;59.904;10.738;2023-09-08T08:04:15;5.05;;;4.05;;
74293;SDS011;64044;59.904;10.738;2023-09-08T08:06:41;4.85;;;4.35;;
74293;SDS011;64044;59.904;10.738;2023-09-08T08:09:07;4.57;;;4.10;;
74293;SDS011;64044;59.904;10.738;2023-09-08T08:11:32;4.95;;;4.45;;
74293;SDS011;64044;59.904;10.738;2023-09-08T08:13:58;5.88;;;4.43;;
74293;SDS011;64044;59.904;10.738;2023-09-08T08:16:24;5.47;;;4.65;;
74293;SDS011;64044;59.904;10.738;2023-09-08T08:18:50;5.55;;;4.72;;
74293;SDS011;64044;59.904;10.738;2023-09-08T08:21:15;6.07;;;4.88;;
74293;SDS011;64044;59.904;10.738;2023-09-08T08:23:41;9.27;;;4.50;;
74293;SDS011;64044;59.904;10.738;2023-09-08T08:26:07;5.22;;;4.72;;
74293;SDS011;64044;59.904;10.738;2023-09-08T08:28:32;7.78;;;5.57;;
74293;SDS011;64044;59.904;10.738;2023-09-08T08:30:59;6.13;;;5.38;;
74293;SDS011;64044;59.904;10.738;2023-09-08T08:33:24;5.90;;;4.82;;
74293;SDS011;64044;59.904;10.738;2023-09-08T08:35:51;4.80;;;4.28;;
74293;SDS011;64044;59.904;10.738;2023-09-08T08:38:18;5.35;;;4.68;;
74293;SDS011;64044;59.904;10.738;2023-09-08T08:40:44;6.07;;;4.72;;
74293;SDS011;64044;59.904;10.738;2023-09-08T08:43:10;6.63;;;5.15;;
74293;SDS011;64044;59.904;10.738;2023-09-08T08:45:37;6.28;;;4.85;;
74293;SDS011;64044;59.904;10.738;2023-09-08T08:48:04;6.55;;;4.85;;
74293;SDS011;64044;59.904;10.738;2023-09-08T08:50:32;7.05;;;5.18;;
74293;SDS011;64044;59.904;10.738;2023-09-08T08:53:00;7.22;;;5.35;;
74293;SDS011;64044;59.904;10.738;2023-09-08T08:55:27;5.32;;;4.63;;
74293;SDS011;64044;59.904;10.738;2023-09-08T08:57:58;7.22;;;5.32;;
74293;SDS011;64044;59.904;10.738;2023-09-08T09:00:28;5.97;;;5.10;;
74293;SDS011;64044;59.904;10.738;2023-09-08T09:03:00;5.53;;;4.95;;
74293;SDS011;64044;59.904;10.738;2023-09-08T09:05:29;8.30;;;5.45;;
74293;SDS011;64044;59.904;10.738;2023-09-08T09:07:56;9.23;;;5.50;;
74293;SDS011;64044;59.904;10.738;2023-09-08T09:10:23;9.15;;;5.80;;
74293;SDS011;64044;59.904;10.738;2023-09-08T09:12:49;7.80;;;5.90;;
74293;SDS011;64044;59.904;10.738;2023-09-08T09:15:14;6.47;;;5.63;;
74293;SDS011;64044;59.904;10.738;2023-09-08T09:17:41;10.95;;;6.57;;
74293;SDS011;64044;59.904;10.738;2023-09-08T09:20:13;8.27;;;5.47;;
74293;SDS011;64044;59.904;10.738;2023-09-08T09:22:40;8.05;;;5.95;;
74293;SDS011;64044;59.904;10.738;2023-09-08T09:25:06;9.18;;;5.75;;
74293;SDS011;64044;59.904;10.738;2023-09-08T09:27:32;8.57;;;5.65;;
74293;SDS011;64044;59.904;10.738;2023-09-08T09:30:04;8.02;;;5.20;;
74293;SDS011;64044;59.904;10.738;2023-09-08T09:32:30;6.65;;;5.40;;
74293;SDS011;64044;59.904;10.738;2023-09-08T09:34:56;6.78;;;5.07;;
74293;SDS011;64044;59.904;10.738;2023-09-08T09:37:22;7.82;;;5.85;;
74293;SDS011;64044;59.904;10.738;2023-09-08T09:39:49;7.97;;;5.40;;
74293;SDS011;64044;59.904;10.738;2023-09-08T09:42:16;8.55;;;5.70;;
74293;SDS011;64044;59.904;10.738;2023-09-08T09:44:42;8.98;;;6.60;;
74293;SDS011;64044;59.904;10.738;2023-09-08T09:47:08;7.78;;;5.95;;
74293;SDS011;64044;59.904;10.738;2023-09-08T09:49:47;7.95;;;6.30;;
74293;SDS011;64044;59.904;10.738;2023-09-08T09:52:14;7.88;;;5.45;;
74293;SDS011;64044;59.904;10.738;2023-09-08T09:54:47;12.35;;;6.20;;
74293;SDS011;64044;59.904;10.738;2023-09-08T09:57:16;6.47;;;5.20;;
74293;SDS011;64044;59.904;10.738;2023-09-08T09:59:44;8.73;;;6.50;;
74293;SDS011;64044;59.904;10.738;2023-09-08T10:02:13;10.43;;;5.72;;
74293;SDS011;64044;59.904;10.738;2023-09-08T10:04:40;11.10;;;5.15;;
74293;SDS011;64044;59.904;10.738;2023-09-08T10:07:06;8.20;;;6.03;;
74293;SDS011;64044;59.904;10.738;2023-09-08T10:09:32;6.30;;;5.45;;
74293;SDS011;64044;59.904;10.738;2023-09-08T10:11:59;7.55;;;5.70;;
74293;SDS011;64044;59.904;10.738;2023-09-08T10:14:29;8.55;;;5.40;;
74293;SDS011;64044;59.904;10.738;2023-09-08T10:16:58;8.50;;;6.03;;
74293;SDS011;64044;59.904;10.738;2023-09-08T10:19:26;7.65;;;6.50;;
74293;SDS011;64044;59.904;10.738;2023-09-08T10:21:54;11.57;;;7.30;;
74293;SDS011;64044;59.904;10.738;2023-09-08T10:24:29;8.25;;;5.75;;
74293;SDS011;64044;59.904;10.738;2023-09-08T10:27:11;8.70;;;4.95;;
74293;SDS011;64044;59.904;10.738;2023-09-08T10:29:37;6.70;;;5.60;;
74293;SDS011;64044;59.904;10.738;2023-09-08T10:32:04;8.68;;;6.05;;
74293;SDS011;64044;59.904;10.738;2023-09-08T10:34:33;10.27;;;6.07;;
74293;SDS011;64044;59.904;10.738;2023-09-08T10:37:00;6.65;;;5.72;;
74293;SDS011;64044;59.904;10.738;2023-09-08T10:39:32;7.50;;;5.50;;
74293;SDS011;64044;59.904;10.738;2023-09-08T10:47:14;7.00;;;5.35;;
74293;SDS011;64044;59.904;10.738;2023-09-08T10:49:56;7.60;;;5.50;;
74293;SDS011;64044;59.904;10.738;2023-09-08T10:52:23;8.48;;;5.18;;
74293;SDS011;64044;59.904;10.738;2023-09-08T10:54:51;10.18;;;6.03;;
74293;SDS011;64044;59.904;10.738;2023-09-08T10:57:18;8.60;;;5.78;;
74293;SDS011;64044;59.904;10.738;2023-09-08T10:59:55;8.57;;;4.95;;
74293;SDS011;64044;59.904;10.738;2023-09-08T11:05:08;6.28;;;5.10;;
74293;SDS011;64044;59.904;10.738;2023-09-08T11:07:35;6.85;;;6.07;;
74293;SDS011;64044;59.904;10.738;2023-09-08T11:10:02;8.60;;;5.70;;
74293;SDS011;64044;59.904;10.738;2023-09-08T11:12:29;6.35;;;5.35;;
74293;SDS011;64044;59.904;10.738;2023-09-08T11:14:56;7.57;;;5.38;;
74293;SDS011;64044;59.904;10.738;2023-09-08T11:17:25;7.25;;;5.63;;
74293;SDS011;64044;59.904;10.738;2023-09-08T11:19:51;11.32;;;6.22;;
74293;SDS011;64044;59.904;10.738;2023-09-08T11:22:17;6.72;;;5.78;;
74293;SDS011;64044;59.904;10.738;2023-09-08T11:24:43;7.47;;;6.13;;
74293;SDS011;64044;59.904;10.738;2023-09-08T11:27:10;7.60;;;5.00;;
74293;SDS011;64044;59.904;10.738;2023-09-08T11:29:37;7.72;;;5.75;;
74293;SDS011;64044;59.904;10.738;2023-09-08T11:32:06;6.63;;;5.40;;
74293;SDS011;64044;59.904;10.738;2023-09-08T11:34:33;5.75;;;5.25;;
74293;SDS011;64044;59.904;10.738;2023-09-08T11:37:12;6.72;;;5.40;;
74293;SDS011;64044;59.904;10.738;2023-09-08T11:39:45;6.50;;;5.68;;
74293;SDS011;64044;59.904;10.738;2023-09-08T11:42:12;6.55;;;5.70;;
74293;SDS011;64044;59.904;10.738;2023-09-08T11:44:39;5.72;;;5.13;;
74293;SDS011;64044;59.904;10.738;2023-09-08T11:47:09;6.22;;;5.43;;
74293;SDS011;64044;59.904;10.738;2023-09-08T11:49:36;5.72;;;4.95;;
74293;SDS011;64044;59.904;10.738;2023-09-08T11:52:03;6.15;;;4.93;;
74293;SDS011;64044;59.904;10.738;2023-09-08T11:54:29;6.43;;;5.18;;
74293;SDS011;64044;59.904;10.738;2023-09-08T11:56:57;6.00;;;5.13;;
74293;SDS011;64044;59.904;10.738;2023-09-08T11:59:28;5.30;;;4.80;;
74293;SDS011;64044;59.904;10.738;2023-09-08T12:01:56;7.00;;;5.30;;
74293;SDS011;64044;59.904;10.738;2023-09-08T12:04:22;6.82;;;4.93;;
74293;SDS011;64044;59.904;10.738;2023-09-08T12:06:48;7.80;;;4.65;;
74293;SDS011;64044;59.904;10.738;2023-09-08T12:09:15;5.82;;;5.13;;
74293;SDS011;64044;59.904;10.738;2023-09-08T12:11:41;5.53;;;4.95;;
74293;SDS011;64044;59.904;10.738;2023-09-08T12:14:11;5.63;;;4.90;;
74293;SDS011;64044;59.904;10.738;2023-09-08T12:16:38;6.00;;;5.38;;
74293;SDS011;64044;59.904;10.738;2023-09-08T12:19:04;5.93;;;5.13;;
74293;SDS011;64044;59.904;10.738;2023-09-08T12:21:31;6.65;;;5.13;;
74293;SDS011;64044;59.904;10.738;2023-09-08T12:23:57;6.22;;;5.35;;
74293;SDS011;64044;59.904;10.738;2023-09-08T12:26:26;6.95;;;5.40;;
74293;SDS011;64044;59.904;10.738;2023-09-08T12:28:52;5.68;;;5.00;;
74293;SDS011;64044;59.904;10.738;2023-09-08T12:31:18;6.80;;;5.53;;
74293;SDS011;64044;59.904;10.738;2023-09-08T12:33:44;6.57;;;5.57;;
74293;SDS011;64044;59.904;10.738;2023-09-08T12:36:15;5.18;;;4.68;;
74293;SDS011;64044;59.904;10.738;2023-09-08T12:38:49;5.80;;;5.20;;
74293;SDS011;64044;59.904;10.738;2023-09-08T12:41:16;5.97;;;5.38;;
74293;SDS011;64044;59.904;10.738;2023-09-08T12:43:42;8.20;;;4.90;;
74293;SDS011;64044;59.904;10.738;2023-09-08T12:46:08;37.63;;;6.00;;
74293;SDS011;64044;59.904;10.738;2023-09-08T12:48:33;6.78;;;5.07;;
74293;SDS011;64044;59.904;10.738;2023-09-08T12:50:59;5.75;;;5.15;;
74293;SDS011;64044;59.904;10.738;2023-09-08T12:53:25;5.95;;;5.10;;
74293;SDS011;64044;59.904;10.738;2023-09-08T12:55:50;5.63;;;4.80;;
74293;SDS011;64044;59.904;10.738;2023-09-08T12:58:16;5.13;;;4.63;;
74293;SDS011;64044;59.904;10.738;2023-09-08T13:00:42;5.43;;;4.65;;
74293;SDS011;64044;59.904;10.738;2023-09-08T13:03:09;5.78;;;4.97;;
74293;SDS011;64044;59.904;10.738;2023-09-08T13:05:35;5.45;;;4.63;;
74293;SDS011;64044;59.904;10.738;2023-09-08T13:08:01;5.20;;;4.32;;
74293;SDS011;64044;59.904;10.738;2023-09-08T13:10:27;5.63;;;5.10;;
74293;SDS011;64044;59.904;10.738;2023-09-08T13:12:52;5.82;;;4.88;;
74293;SDS011;64044;59.904;10.738;2023-09-08T13:15:18;6.43;;;5.30;;
74293;SDS011;64044;59.904;10.738;2023-09-08T13:17:44;5.70;;;5.03;;
74293;SDS011;64044;59.904;10.738;2023-09-08T13:20:10;6.40;;;4.93;;
74293;SDS011;64044;59.904;10.738;2023-09-08T13:22:36;5.15;;;4.65;;
74293;SDS011;64044;59.904;10.738;2023-09-08T13:25:02;5.45;;;4.82;;
74293;SDS011;64044;59.904;10.738;2023-09-08T13:27:28;5.55;;;5.00;;
74293;SDS011;64044;59.904;10.738;2023-09-08T13:29:54;5.22;;;4.45;;
74293;SDS011;64044;59.904;10.738;2023-09-08T13:32:19;6.03;;;4.63;;
74293;SDS011;64044;59.904;10.738;2023-09-08T13:34:47;5.15;;;4.75;;
74293;SDS011;64044;59.904;10.738;2023-09-08T13:37:13;5.88;;;5.30;;
74293;SDS011;64044;59.904;10.738;2023-09-08T13:39:40;5.55;;;4.97;;
74293;SDS011;64044;59.904;10.738;2023-09-08T13:42:05;5.60;;;5.00;;
74293;SDS011;64044;59.904;10.738;2023-09-08T13:44:31;6.22;;;5.25;;
74293;SDS011;64044;59.904;10.738;2023-09-08T13:46:57;6.00;;;5.40;;
74293;SDS011;64044;59.904;10.738;2023-09-08T13:49:22;5.55;;;4.95;;
74293;SDS011;64044;59.904;10.738;2023-09-08T13:51:48;6.22;;;5.45;;
74293;SDS011;64044;59.904;10.738;2023-09-08T13:54:17;7.07;;;6.18;;
74293;SDS011;64044;59.904;10.738;2023-09-08T13:59:33;7.10;;;6.28;;
74293;SDS011;64044;59.904;10.738;2023-09-08T14:01:59;8.82;;;6.88;;
74293;SDS011;64044;59.904;10.738;2023-09-08T14:04:26;6.68;;;5.60;;
74293;SDS011;64044;59.904;10.738;2023-09-08T14:06:52;7.30;;;6.55;;
74293;SDS011;64044;59.904;10.738;2023-09-08T14:09:18;9.70;;;8.02;;
74293;SDS011;64044;59.904;10.738;2023-09-08T14:11:44;10.77;;;7.60;;
74293;SDS011;64044;59.904;10.738;2023-09-08T14:14:10;9.13;;;8.02;;
74293;SDS011;64044;59.904;10.738;2023-09-08T14:16:36;9.38;;;7.15;;
74293;SDS011;64044;59.904;10.738;2023-09-08T14:19:01;9.50;;;8.50;;
74293;SDS011;64044;59.904;10.738;2023-09-08T14:21:27;11.57;;;8.63;;
74293;SDS011;64044;59.904;10.738;2023-09-08T14:23:53;10.02;;;8.00;;
74293;SDS011;64044;59.904;10.738;2023-09-08T14:26:18;10.75;;;7.55;;
74293;SDS011;64044;59.904;10.738;2023-09-08T14:28:45;12.63;;;8.35;;
74293;SDS011;64044;59.904;10.738;2023-09-08T14:31:11;9.38;;;8.20;;
74293;SDS011;64044;59.904;10.738;2023-09-08T14:33:37;10.20;;;8.02;;
74293;SDS011;64044;59.904;10.738;2023-09-08T14:36:03;9.00;;;7.90;;
74293;SDS011;64044;59.904;10.738;2023-09-08T14:38:28;8.85;;;7.22;;
74293;SDS011;64044;59.904;10.738;2023-09-08T14:40:58;10.80;;;9.15;;
74293;SDS011;64044;59.904;10.738;2023-09-08T14:43:27;13.75;;;9.68;;
74293;SDS011;64044;59.904;10.738;2023-09-08T14:45:54;13.15;;;9.43;;